Pen Duick Vi — FHHH — position and weather

sailwx.info

Track history (hours):
 
Tides and Currents Weather Stations Pressure Air Temp Water Temp Dewpoint Dewpoint Depression Visibility Wind Speed Wind Dir Waves Ship Positions

Pen Duick Vi

Last reported at 2017-Sep-24 14:25 UTC. Time now 2017-Sep-25 01:04 UTC.
Position N 47°44' W 003°22'.

Length 23 m.

Type: Sailing vessel. MMSI: 227661000.

Date/timePositionNaut miles runAvg speedWind from/ knotsBaromVisibWave heightAir tempDewpointWater temp
2017-Sep-24 14:25N 47°44' W 003°22'0 0.6
2017-Sep-24 14:00N 47°44' W 003°22'0 0.0
2017-Sep-24 13:30N 47°44' W 003°22'0 0.0
2017-Sep-24 13:00N 47°44' W 003°22'0 0.2
2017-Sep-24 12:30N 47°44' W 003°22'0 0.6
2017-Sep-24 11:59N 47°43' W 003°22'2 4.9
2017-Sep-24 11:30N 47°41' W 003°24'2 1.5
2017-Sep-24 10:00N 47°41' W 003°27'3 6.5
2017-Sep-24 09:30N 47°42' W 003°22'2 3.6
2017-Sep-24 08:59N 47°44' W 003°22'0 0.0
2017-Sep-24 08:29N 47°44' W 003°22'0 0.0
2017-Sep-24 07:59N 47°44' W 003°22'  
2017-Sep-20 13:39N 47°44' W 003°22'0 0.0
2017-Sep-20 13:30N 47°44' W 003°22'2 3.6
2017-Sep-20 13:00N 47°42' W 003°22'3 5.3
2017-Sep-20 12:29N 47°40' W 003°24'2 3.0
2017-Sep-20 11:52N 47°39' W 003°27'0 0.0
2017-Sep-20 11:22N 47°39' W 003°27'0 0.0
2017-Sep-20 10:46N 47°39' W 003°27'0 0.0
2017-Sep-20 10:28N 47°39' W 003°27'0 0.0
2017-Sep-20 09:39N 47°39' W 003°27'0 1.6
2017-Sep-20 09:21N 47°39' W 003°26'0 0.5
2017-Sep-20 08:55N 47°39' W 003°26'1 2.9
2017-Sep-20 08:30N 47°40' W 003°26'4 8.0
2017-Sep-20 08:00N 47°43' W 003°22'1 1.4
2017-Sep-20 07:28N 47°44' W 003°22'0 0.0
2017-Sep-18 03:32N 47°44' W 003°22'0 0.0
2017-Sep-18 03:29N 47°44' W 003°22'2 3.1
2017-Sep-18 03:00N 47°42' W 003°22'4 7.0
2017-Sep-18 02:30N 47°41' W 003°27'59 5.8
2017-Sep-17 16:24N 48°06' W 004°46'4 9.1
2017-Sep-17 15:58N 48°10' W 004°46'4 9.1
2017-Sep-17 15:30N 48°14' W 004°46'5 8.2
2017-Sep-17 14:53N 48°19' W 004°47'10 6.6
2017-Sep-17 13:23N 48°29' W 004°49'2 5.2
2017-Sep-17 12:59N 48°31' W 004°49'  
2017-Sep-15 05:38N 49°43' W 001°44'1 7.9
2017-Sep-15 05:30N 49°43' W 001°42'3 5.0
2017-Sep-15 05:00N 49°43' W 001°39'3 5.6
2017-Sep-15 04:30N 49°40' W 001°39'2 3.1
2017-Sep-15 04:00N 49°39' W 001°37'0 0.6
2017-Sep-15 03:29N 49°39' W 001°37'  
Track history (hours):
 
Tides and Currents Weather Stations Pressure Air Temp Water Temp Dewpoint Dewpoint Depression Visibility Wind Speed Wind Dir Waves Ship Positions

Pen Duick Vi

Last reported at 2017-Sep-24 14:25 UTC. Time now 2017-Sep-25 01:04 UTC.
Position N 47°44' W 003°22'.

Length 23 m.

Type: Sailing vessel. MMSI: 227661000.

Date/timePositionNaut miles runAvg speedWind from/ knotsBaromVisibWave heightAir tempDewpointWater temp
2017-Sep-24 14:25N 47°44' W 003°22'0 0.6
2017-Sep-24 14:00N 47°44' W 003°22'0 0.0
2017-Sep-24 13:30N 47°44' W 003°22'0 0.0
2017-Sep-24 13:00N 47°44' W 003°22'0 0.2
2017-Sep-24 12:30N 47°44' W 003°22'0 0.6
2017-Sep-24 11:59N 47°43' W 003°22'2 4.9
2017-Sep-24 11:30N 47°41' W 003°24'2 1.5
2017-Sep-24 10:00N 47°41' W 003°27'3 6.5
2017-Sep-24 09:30N 47°42' W 003°22'2 3.6
2017-Sep-24 08:59N 47°44' W 003°22'0 0.0
2017-Sep-24 08:29N 47°44' W 003°22'0 0.0
2017-Sep-24 07:59N 47°44' W 003°22'  
2017-Sep-20 13:39N 47°44' W 003°22'0 0.0
2017-Sep-20 13:30N 47°44' W 003°22'2 3.6
2017-Sep-20 13:00N 47°42' W 003°22'3 5.3
2017-Sep-20 12:29N 47°40' W 003°24'2 3.0
2017-Sep-20 11:52N 47°39' W 003°27'0 0.0
2017-Sep-20 11:22N 47°39' W 003°27'0 0.0
2017-Sep-20 10:46N 47°39' W 003°27'0 0.0
2017-Sep-20 10:28N 47°39' W 003°27'0 0.0
2017-Sep-20 09:39N 47°39' W 003°27'0 1.6
2017-Sep-20 09:21N 47°39' W 003°26'0 0.5
2017-Sep-20 08:55N 47°39' W 003°26'1 2.9
2017-Sep-20 08:30N 47°40' W 003°26'4 8.0
2017-Sep-20 08:00N 47°43' W 003°22'1 1.4
2017-Sep-20 07:28N 47°44' W 003°22'0 0.0
2017-Sep-18 03:32N 47°44' W 003°22'0 0.0
2017-Sep-18 03:29N 47°44' W 003°22'2 3.1
2017-Sep-18 03:00N 47°42' W 003°22'4 7.0
2017-Sep-18 02:30N 47°41' W 003°27'59 5.8
2017-Sep-17 16:24N 48°06' W 004°46'4 9.1
2017-Sep-17 15:58N 48°10' W 004°46'4 9.1
2017-Sep-17 15:30N 48°14' W 004°46'5 8.2
2017-Sep-17 14:53N 48°19' W 004°47'10 6.6
2017-Sep-17 13:23N 48°29' W 004°49'2 5.2
2017-Sep-17 12:59N 48°31' W 004°49'  
2017-Sep-15 05:38N 49°43' W 001°44'1 7.9
2017-Sep-15 05:30N 49°43' W 001°42'3 5.0
2017-Sep-15 05:00N 49°43' W 001°39'3 5.6
2017-Sep-15 04:30N 49°40' W 001°39'2 3.1
2017-Sep-15 04:00N 49°39' W 001°37'0 0.6
2017-Sep-15 03:29N 49°39' W 001°37'  

Dump ship's entire track history